createdAt,value
2023-06-11T00:01:43.057Z,15.46
2023-06-11T00:04:27.582Z,15.43
2023-06-11T00:06:57.675Z,15.43
2023-06-11T00:09:25.541Z,15.31
2023-06-11T00:11:55.203Z,15.20
2023-06-11T00:14:24.896Z,15.15
2023-06-11T00:16:53.339Z,15.07
2023-06-11T00:19:22.389Z,15.00
2023-06-11T00:21:50.904Z,14.97
2023-06-11T00:24:18.995Z,14.90
2023-06-11T00:26:47.194Z,14.79
2023-06-11T00:29:14.978Z,14.80
2023-06-11T00:31:43.078Z,14.78
2023-06-11T00:34:11.393Z,14.65
2023-06-11T00:36:42.003Z,14.60
2023-06-11T00:39:09.846Z,14.55
2023-06-11T00:41:38.577Z,14.44
2023-06-11T00:44:07.415Z,14.38
2023-06-11T00:46:39.092Z,14.37
2023-06-11T00:49:06.978Z,14.29
2023-06-11T00:51:36.222Z,14.28
2023-06-11T00:54:04.040Z,14.15
2023-06-11T00:56:32.220Z,14.16
2023-06-11T00:59:00.949Z,14.15
2023-06-11T01:01:33.249Z,14.08
2023-06-11T01:04:02.873Z,14.04
2023-06-11T01:06:34.837Z,14.03
2023-06-11T01:09:04.429Z,13.95
2023-06-11T01:11:36.556Z,13.90
2023-06-11T01:14:08.456Z,13.83
2023-06-11T01:16:55.140Z,13.85
2023-06-11T01:20:11.294Z,13.77
2023-06-11T01:22:58.410Z,13.80
2023-06-11T01:25:38.524Z,13.80
2023-06-11T01:28:25.778Z,13.72
2023-06-11T01:30:54.258Z,13.68
2023-06-11T01:33:25.808Z,13.71
2023-06-11T01:35:59.560Z,13.72
2023-06-11T01:38:36.181Z,13.65
2023-06-11T01:41:04.982Z,13.65
2023-06-11T01:43:34.364Z,13.64
2023-06-11T01:46:04.197Z,13.58
2023-06-11T01:48:33.707Z,13.53
2023-06-11T01:51:01.574Z,13.50
2023-06-11T01:53:29.556Z,13.50
2023-06-11T01:55:58.089Z,13.44
2023-06-11T01:58:27.528Z,13.43
2023-06-11T02:00:55.300Z,13.38
2023-06-11T02:03:23.341Z,13.45
2023-06-11T02:05:51.409Z,13.40
2023-06-11T02:08:19.549Z,13.36
2023-06-11T02:10:47.525Z,13.31
2023-06-11T02:13:15.625Z,13.30
2023-06-11T02:15:43.461Z,13.25
2023-06-11T02:18:11.502Z,13.21
2023-06-11T02:20:38.825Z,13.26
2023-06-11T02:23:07.294Z,13.23
2023-06-11T02:25:35.187Z,13.17
2023-06-11T02:28:06.674Z,13.18
2023-06-11T02:30:34.573Z,13.18
2023-06-11T02:33:03.069Z,13.22
2023-06-11T02:35:32.588Z,13.23
2023-06-11T02:38:01.187Z,13.25
2023-06-11T02:40:29.026Z,13.15
2023-06-11T02:42:56.971Z,13.13
2023-06-11T02:45:24.625Z,13.08
2023-06-11T02:47:52.588Z,13.16
2023-06-11T02:50:20.603Z,13.14
2023-06-11T02:52:48.540Z,13.16
2023-06-11T02:55:16.351Z,13.17
2023-06-11T02:57:44.786Z,13.08
2023-06-11T03:00:12.940Z,13.07
2023-06-11T03:02:41.126Z,13.03
2023-06-11T03:05:09.873Z,13.00
2023-06-11T03:07:39.162Z,12.95
2023-06-11T03:10:08.819Z,13.01
2023-06-11T03:12:36.709Z,12.97
2023-06-11T03:15:05.351Z,13.14
2023-06-11T03:17:33.355Z,13.04
2023-06-11T03:20:01.907Z,13.05
2023-06-11T03:22:30.676Z,13.11
2023-06-11T03:24:58.378Z,13.09
2023-06-11T03:27:33.590Z,13.13
2023-06-11T03:30:01.473Z,13.14
2023-06-11T03:32:31.072Z,13.15
2023-06-11T03:34:58.892Z,13.23
2023-06-11T03:37:27.359Z,13.21
2023-06-11T03:39:58.442Z,13.24
2023-06-11T03:42:29.889Z,13.33
2023-06-11T03:44:57.855Z,13.33
2023-06-11T03:47:27.688Z,13.44
2023-06-11T03:49:55.748Z,13.47
2023-06-11T03:52:24.036Z,13.63
2023-06-11T03:54:52.346Z,13.62
2023-06-11T03:57:20.599Z,13.72
2023-06-11T03:59:49.087Z,13.62
2023-06-11T04:02:17.261Z,13.84
2023-06-11T04:04:47.284Z,13.72
2023-06-11T04:07:15.536Z,13.80
2023-06-11T04:09:43.247Z,13.82
2023-06-11T04:12:11.573Z,14.01
2023-06-11T04:14:39.362Z,13.90
2023-06-11T04:17:08.171Z,13.90
2023-06-11T04:19:36.021Z,14.00
2023-06-11T04:22:05.411Z,14.09
2023-06-11T04:24:33.189Z,14.17
2023-06-11T04:27:01.605Z,14.13
2023-06-11T04:29:30.634Z,14.36
2023-06-11T04:34:58.448Z,14.50
2023-06-11T04:37:31.270Z,14.59
2023-06-11T04:40:10.590Z,14.75
2023-06-11T04:42:42.158Z,14.77
2023-06-11T04:45:12.090Z,14.95
2023-06-11T04:47:41.938Z,15.18
2023-06-11T04:50:10.472Z,15.35
2023-06-11T04:52:44.004Z,15.51
2023-06-11T04:55:13.759Z,15.89
2023-06-11T04:57:43.066Z,16.21
2023-06-11T05:00:14.689Z,16.36
2023-06-11T05:02:47.453Z,16.42
2023-06-11T05:05:17.096Z,16.50
2023-06-11T05:07:44.926Z,16.51
2023-06-11T05:10:14.555Z,16.60
2023-06-11T05:12:42.538Z,16.92
2023-06-11T05:15:11.266Z,17.10
2023-06-11T05:17:40.731Z,17.34
2023-06-11T05:20:10.278Z,17.37
2023-06-11T05:22:38.908Z,17.44
2023-06-11T05:25:08.863Z,17.72
2023-06-11T05:27:37.339Z,17.78
2023-06-11T05:30:07.961Z,17.53
2023-06-11T05:32:37.882Z,17.61
2023-06-11T05:35:07.305Z,17.83
2023-06-11T05:37:37.277Z,18.09
2023-06-11T05:40:06.574Z,18.02
2023-06-11T05:42:35.254Z,17.77
2023-06-11T05:45:03.170Z,17.72
2023-06-11T05:47:31.589Z,17.96
2023-06-11T05:50:00.237Z,18.10
2023-06-11T05:52:28.861Z,18.38
2023-06-11T05:54:56.592Z,18.74
2023-06-11T05:57:26.054Z,19.08
2023-06-11T05:59:56.954Z,19.15
2023-06-11T06:02:28.516Z,19.01
2023-06-11T06:04:58.941Z,19.01
2023-06-11T06:07:27.081Z,18.78
2023-06-11T06:09:56.457Z,18.92
2023-06-11T06:12:24.963Z,19.28
2023-06-11T06:14:52.896Z,19.33
2023-06-11T06:17:21.570Z,19.22
2023-06-11T06:19:49.475Z,19.34
2023-06-11T06:22:19.687Z,19.35
2023-06-11T06:24:48.437Z,19.44
2023-06-11T06:27:16.836Z,19.49
2023-06-11T06:29:45.617Z,19.73
2023-06-11T06:32:13.542Z,19.57
2023-06-11T06:34:41.993Z,19.41
2023-06-11T06:37:12.822Z,19.53
2023-06-11T06:39:44.074Z,19.43
2023-06-11T06:42:12.288Z,19.73
2023-06-11T06:44:44.875Z,19.98
2023-06-11T06:47:16.246Z,20.12
2023-06-11T06:49:44.829Z,20.16
2023-06-11T06:52:13.435Z,20.28
2023-06-11T06:57:12.173Z,19.99
2023-06-11T06:59:40.078Z,19.74
2023-06-11T07:02:10.030Z,19.81
2023-06-11T07:04:39.035Z,19.79
2023-06-11T07:07:06.883Z,19.64
2023-06-11T07:09:35.458Z,19.80
2023-06-11T07:12:04.238Z,19.62
2023-06-11T07:14:33.013Z,19.74
2023-06-11T07:17:02.496Z,19.86
2023-06-11T07:19:30.218Z,20.08
2023-06-11T07:21:58.289Z,20.18
2023-06-11T07:24:26.940Z,20.42
2023-06-11T07:26:54.885Z,20.77
2023-06-11T07:29:23.059Z,20.65
2023-06-11T07:31:51.147Z,20.40
2023-06-11T07:34:20.727Z,20.11
2023-06-11T07:36:49.037Z,20.16
2023-06-11T07:39:16.753Z,20.05
2023-06-11T07:41:45.405Z,20.19
2023-06-11T07:44:13.252Z,20.21
2023-06-11T07:46:42.108Z,20.13
2023-06-11T07:49:09.953Z,20.31
2023-06-11T07:51:38.404Z,20.59
2023-06-11T07:54:09.105Z,20.55
2023-06-11T07:56:37.544Z,20.47
2023-06-11T07:59:05.367Z,20.64
2023-06-11T08:01:33.252Z,20.77
2023-06-11T08:04:00.943Z,20.86
2023-06-11T08:06:29.531Z,21.05
2023-06-11T08:08:58.030Z,21.29
2023-06-11T08:11:26.712Z,21.14
2023-06-11T08:13:54.389Z,21.35
2023-06-11T08:16:22.771Z,21.41
2023-06-11T08:18:50.545Z,21.38
2023-06-11T08:21:18.676Z,21.20
2023-06-11T08:23:47.074Z,21.00
2023-06-11T08:26:15.671Z,20.98
2023-06-11T08:28:43.445Z,21.41
2023-06-11T08:31:12.148Z,21.55
2023-06-11T08:33:39.885Z,21.57
2023-06-11T08:36:08.559Z,21.70
2023-06-11T08:38:38.786Z,21.57
2023-06-11T08:41:06.998Z,21.23
2023-06-11T08:43:34.865Z,21.08
2023-06-11T08:46:03.138Z,21.15
2023-06-11T08:48:33.908Z,21.22
2023-06-11T08:51:03.451Z,20.98
2023-06-11T08:53:31.441Z,20.93
2023-06-11T08:56:00.382Z,21.04
2023-06-11T08:58:28.826Z,21.08
2023-06-11T09:00:57.124Z,21.04
2023-06-11T09:03:25.014Z,21.04
2023-06-11T09:05:52.996Z,21.28
2023-06-11T09:08:20.855Z,21.37
2023-06-11T09:10:52.930Z,21.39
2023-06-11T09:13:25.634Z,21.24
2023-06-11T09:15:56.680Z,20.88
2023-06-11T09:18:26.159Z,21.03
2023-06-11T09:21:01.389Z,21.08
2023-06-11T09:23:31.890Z,20.95
2023-06-11T09:26:03.867Z,20.96
2023-06-11T09:28:33.583Z,21.08
2023-06-11T09:31:05.104Z,21.18
2023-06-11T09:33:34.016Z,21.22
2023-06-11T09:36:02.534Z,21.37
2023-06-11T09:38:34.986Z,21.11
2023-06-11T09:41:06.011Z,21.05
2023-06-11T09:43:35.408Z,21.04
2023-06-11T09:46:03.632Z,20.93
2023-06-11T09:48:31.644Z,21.01
2023-06-11T09:51:02.533Z,20.99
2023-06-11T09:53:34.763Z,21.11
2023-06-11T09:56:11.082Z,21.32
2023-06-11T09:58:40.872Z,21.46
2023-06-11T10:01:09.249Z,21.47
2023-06-11T10:03:37.131Z,21.42
2023-06-11T10:06:17.626Z,21.48
2023-06-11T10:08:47.021Z,21.49
2023-06-11T10:11:15.597Z,21.50
2023-06-11T10:13:44.342Z,21.50
2023-06-11T10:16:12.968Z,21.39
2023-06-11T10:18:40.704Z,21.49
2023-06-11T10:21:08.648Z,21.36
2023-06-11T10:23:38.380Z,21.49
2023-06-11T10:26:07.695Z,21.41
2023-06-11T10:28:42.334Z,21.59
2023-06-11T10:31:10.221Z,21.69
2023-06-11T10:33:44.674Z,21.61
2023-06-11T10:36:35.572Z,21.47
2023-06-11T10:39:06.967Z,21.67
2023-06-11T10:41:39.293Z,21.56
2023-06-11T10:44:07.946Z,21.61
2023-06-11T10:46:53.633Z,21.67
2023-06-11T10:49:27.219Z,21.57
2023-06-11T10:51:56.713Z,21.63
2023-06-11T10:54:28.653Z,21.73
2023-06-11T10:56:59.550Z,21.85
2023-06-11T10:59:27.322Z,21.80
2023-06-11T11:01:56.037Z,21.87
2023-06-11T11:04:24.125Z,21.95
2023-06-11T11:06:56.437Z,22.09
2023-06-11T11:09:24.468Z,22.06
2023-06-11T11:11:52.645Z,21.82
2023-06-11T11:14:20.415Z,22.25
2023-06-11T11:16:49.078Z,22.26
2023-06-11T11:19:17.056Z,22.07
2023-06-11T11:21:52.411Z,21.97
2023-06-11T11:24:20.422Z,21.98
2023-06-11T11:26:48.756Z,21.91
2023-06-11T11:29:16.535Z,21.98
2023-06-11T11:31:46.379Z,21.92
2023-06-11T11:34:14.196Z,21.83
2023-06-11T11:36:46.684Z,21.86
2023-06-11T11:39:16.259Z,22.03
2023-06-11T11:41:54.863Z,21.98
2023-06-11T11:44:23.490Z,21.88
2023-06-11T11:46:57.697Z,22.12
2023-06-11T11:49:33.519Z,22.13
2023-06-11T11:52:02.059Z,22.14
2023-06-11T11:54:29.850Z,22.19
2023-06-11T11:57:05.058Z,22.33
2023-06-11T11:59:41.078Z,22.34
2023-06-11T12:02:09.578Z,22.28
2023-06-11T12:04:43.843Z,21.93
2023-06-11T12:07:18.519Z,21.89
2023-06-11T12:09:46.237Z,22.14
2023-06-11T12:12:14.096Z,22.18
2023-06-11T12:14:41.874Z,22.46
2023-06-11T12:17:12.680Z,22.68
2023-06-11T12:19:41.228Z,22.52
2023-06-11T12:22:09.341Z,22.59
2023-06-11T12:24:37.832Z,22.50
2023-06-11T12:27:11.248Z,22.18
2023-06-11T12:29:40.182Z,22.27
2023-06-11T12:32:14.731Z,22.25
2023-06-11T12:34:42.456Z,22.35
2023-06-11T12:37:11.752Z,22.62
2023-06-11T12:39:39.463Z,22.61
2023-06-11T12:42:07.630Z,22.41
2023-06-11T12:44:35.772Z,22.46
2023-06-11T12:47:03.848Z,22.24
2023-06-11T12:49:32.818Z,22.10
2023-06-11T12:52:01.099Z,22.18
2023-06-11T12:54:28.959Z,22.35
2023-06-11T12:56:57.195Z,22.47
2023-06-11T12:59:24.968Z,22.45
2023-06-11T13:01:53.410Z,22.14
2023-06-11T13:04:21.300Z,21.92
2023-06-11T13:06:49.691Z,22.02
2023-06-11T13:09:17.504Z,22.25
2023-06-11T13:11:46.016Z,22.43
2023-06-11T13:14:18.953Z,22.48
2023-06-11T13:16:47.411Z,22.54
2023-06-11T13:19:15.269Z,22.46
2023-06-11T13:21:43.213Z,22.12
2023-06-11T13:24:10.811Z,22.08
2023-06-11T13:26:39.151Z,22.21
2023-06-11T13:29:07.239Z,22.38
2023-06-11T13:31:35.633Z,22.54
2023-06-11T13:34:03.592Z,22.62
2023-06-11T13:36:32.837Z,22.58
2023-06-11T13:39:00.551Z,22.78
2023-06-11T13:41:29.208Z,22.97
2023-06-11T13:43:56.937Z,23.10
2023-06-11T13:46:25.055Z,23.01
2023-06-11T13:48:52.711Z,23.16
2023-06-11T13:51:22.220Z,23.14
2023-06-11T13:53:50.797Z,23.05
2023-06-11T13:56:19.372Z,22.87
2023-06-11T13:58:47.390Z,22.80
2023-06-11T14:01:15.745Z,22.79
2023-06-11T14:03:43.612Z,22.64
2023-06-11T14:06:12.114Z,22.44
2023-06-11T14:08:39.970Z,22.25
2023-06-11T14:11:10.937Z,22.19
2023-06-11T14:13:38.540Z,22.39
2023-06-11T14:16:06.965Z,22.66
2023-06-11T14:18:34.761Z,22.95
2023-06-11T14:21:03.165Z,23.13
2023-06-11T14:23:30.925Z,23.14
2023-06-11T14:25:58.917Z,23.14
2023-06-11T14:28:26.637Z,23.15
2023-06-11T14:30:54.520Z,23.06
2023-06-11T14:33:22.330Z,23.11
2023-06-11T14:35:51.814Z,23.28
2023-06-11T14:38:19.611Z,23.06
2023-06-11T14:40:47.678Z,23.01
2023-06-11T14:43:15.565Z,22.89
2023-06-11T14:45:43.251Z,22.71
2023-06-11T14:48:11.011Z,22.65
2023-06-11T14:50:39.202Z,22.63
2023-06-11T14:53:09.157Z,22.68
2023-06-11T14:55:37.926Z,22.73
2023-06-11T14:58:05.609Z,22.55
2023-06-11T15:00:33.591Z,22.46
2023-06-11T15:03:01.793Z,22.56
2023-06-11T15:05:30.026Z,22.67
2023-06-11T15:07:57.639Z,22.82
2023-06-11T15:10:25.598Z,22.96
2023-06-11T15:12:53.879Z,22.91
2023-06-11T15:15:22.434Z,22.82
2023-06-11T15:17:50.226Z,22.89
2023-06-11T15:20:18.832Z,22.91
2023-06-11T15:22:46.472Z,22.81
2023-06-11T15:25:14.440Z,22.62
2023-06-11T15:27:42.912Z,22.75
2023-06-11T15:30:11.688Z,22.73
2023-06-11T15:32:40.208Z,22.75
2023-06-11T15:35:09.063Z,22.74
2023-06-11T15:37:37.014Z,22.73
2023-06-11T15:40:05.662Z,22.66
2023-06-11T15:42:33.431Z,22.66
2023-06-11T15:45:01.859Z,22.80
2023-06-11T15:47:30.867Z,22.84
2023-06-11T15:49:59.052Z,22.74
2023-06-11T15:52:26.834Z,22.54
2023-06-11T15:54:54.692Z,22.49
2023-06-11T15:57:22.972Z,22.42
2023-06-11T15:59:51.604Z,22.52
2023-06-11T16:02:19.406Z,22.42
2023-06-11T16:04:49.390Z,22.46
2023-06-11T16:07:17.669Z,22.59
2023-06-11T16:09:47.613Z,22.58
2023-06-11T16:12:16.102Z,22.52
2023-06-11T16:14:44.413Z,22.51
2023-06-11T16:17:12.785Z,22.57
2023-06-11T16:19:41.245Z,22.61
2023-06-11T16:22:12.157Z,22.57
2023-06-11T16:24:41.273Z,22.54
2023-06-11T16:27:08.725Z,22.54
2023-06-11T16:29:37.109Z,22.42
2023-06-11T16:32:05.500Z,22.53
2023-06-11T16:34:33.715Z,22.44
2023-06-11T16:37:01.649Z,22.40
2023-06-11T16:39:29.761Z,22.39
2023-06-11T16:41:58.862Z,22.37
2023-06-11T16:44:26.821Z,22.37
2023-06-11T16:46:54.677Z,22.37
2023-06-11T16:49:22.869Z,22.41
2023-06-11T16:51:50.853Z,22.30
2023-06-11T16:54:19.336Z,22.12
2023-06-11T16:56:47.552Z,22.01
2023-06-11T16:59:15.714Z,21.91
2023-06-11T17:01:43.784Z,21.75
2023-06-11T17:04:12.563Z,21.80
2023-06-11T17:06:41.316Z,21.80
2023-06-11T17:09:09.723Z,21.78
2023-06-11T17:11:37.662Z,21.81
2023-06-11T17:14:06.194Z,21.80
2023-06-11T17:16:34.199Z,21.79
2023-06-11T17:19:05.102Z,21.75
2023-06-11T17:21:35.334Z,21.74
2023-06-11T17:24:04.963Z,21.68
2023-06-11T17:26:34.697Z,21.65
2023-06-11T17:29:03.657Z,21.65
2023-06-11T17:31:31.694Z,21.68
2023-06-11T17:33:59.903Z,21.62
2023-06-11T17:36:27.747Z,21.52
2023-06-11T17:38:56.105Z,21.53
2023-06-11T17:41:25.160Z,21.54
2023-06-11T17:43:53.538Z,21.59
2023-06-11T17:46:21.985Z,21.55
2023-06-11T17:48:50.511Z,21.56
2023-06-11T17:51:18.147Z,21.50
2023-06-11T17:53:46.482Z,21.47
2023-06-11T17:56:14.781Z,21.41
2023-06-11T17:58:42.842Z,21.34
2023-06-11T18:01:11.266Z,21.24
2023-06-11T18:03:39.974Z,21.14
2023-06-11T18:06:07.973Z,21.07
2023-06-11T18:08:37.260Z,20.93
2023-06-11T18:11:05.231Z,20.89
2023-06-11T18:13:33.805Z,20.82
2023-06-11T18:16:02.714Z,20.76
2023-06-11T18:18:33.131Z,20.67
2023-06-11T18:21:00.912Z,20.59
2023-06-11T18:23:29.564Z,20.50
2023-06-11T18:25:58.066Z,20.40
2023-06-11T18:28:26.816Z,20.34
2023-06-11T18:30:55.416Z,20.26
2023-06-11T18:33:24.044Z,20.23
2023-06-11T18:35:52.079Z,20.17
2023-06-11T18:38:20.758Z,20.09
2023-06-11T18:40:49.164Z,20.02
2023-06-11T18:43:17.715Z,19.87
2023-06-11T18:45:46.597Z,19.81
2023-06-11T18:48:16.401Z,19.74
2023-06-11T18:50:44.765Z,19.69
2023-06-11T18:53:13.941Z,19.61
2023-06-11T18:55:42.724Z,19.53
2023-06-11T18:58:11.372Z,19.40
2023-06-11T19:00:39.069Z,19.29
2023-06-11T19:03:07.210Z,19.09
2023-06-11T19:05:35.508Z,19.02
2023-06-11T19:08:04.147Z,18.93
2023-06-11T19:10:32.184Z,18.79
2023-06-11T19:13:01.755Z,18.66
2023-06-11T19:15:29.831Z,18.53
2023-06-11T19:17:59.607Z,18.49
2023-06-11T19:20:31.253Z,18.37
2023-06-11T19:22:59.662Z,18.24
2023-06-11T19:25:27.592Z,18.09
2023-06-11T19:27:56.070Z,17.97
2023-06-11T19:30:25.086Z,17.80
2023-06-11T19:32:54.124Z,17.65
2023-06-11T19:35:22.014Z,17.54
2023-06-11T19:37:50.624Z,17.39
2023-06-11T19:40:18.401Z,17.23
2023-06-11T19:42:47.585Z,17.12
2023-06-11T19:45:19.213Z,17.02
2023-06-11T19:47:48.120Z,16.87
2023-06-11T19:50:16.483Z,16.68
2023-06-11T19:52:45.212Z,16.53
2023-06-11T19:55:18.398Z,16.40
2023-06-11T19:57:47.089Z,16.25
2023-06-11T20:00:16.291Z,16.05
2023-06-11T20:02:44.709Z,15.90
2023-06-11T20:05:13.210Z,15.72
2023-06-11T20:07:41.551Z,15.65
2023-06-11T20:10:09.970Z,15.60
2023-06-11T20:12:38.834Z,15.54
2023-06-11T20:15:07.263Z,15.45
2023-06-11T20:17:35.601Z,15.41
2023-06-11T20:20:04.072Z,15.45
2023-06-11T20:22:33.181Z,15.46
2023-06-11T20:25:01.250Z,15.40
2023-06-11T20:27:30.344Z,15.32
2023-06-11T20:29:58.256Z,15.26
2023-06-11T20:32:26.816Z,15.15
2023-06-11T20:34:54.716Z,15.09
2023-06-11T20:37:23.420Z,15.03
2023-06-11T20:39:51.865Z,14.98
2023-06-11T20:42:20.252Z,14.91
2023-06-11T20:44:48.279Z,14.89
2023-06-11T20:47:17.033Z,14.81
2023-06-11T20:49:44.939Z,14.80
2023-06-11T20:52:13.590Z,14.64
2023-06-11T20:54:41.503Z,14.60
2023-06-11T20:57:09.722Z,14.43
2023-06-11T20:59:37.553Z,14.37
2023-06-11T21:02:06.397Z,14.29
2023-06-11T21:04:36.686Z,14.20
2023-06-11T21:07:07.734Z,14.13
2023-06-11T21:09:35.760Z,14.08
2023-06-11T21:12:04.651Z,13.97
2023-06-11T21:14:32.515Z,13.92
2023-06-11T21:17:01.280Z,13.83
2023-06-11T21:19:29.073Z,13.63
2023-06-11T21:21:57.636Z,13.56
2023-06-11T21:24:25.589Z,13.44
2023-06-11T21:26:54.104Z,13.37
2023-06-11T21:29:22.064Z,13.27
2023-06-11T21:31:50.451Z,13.20
2023-06-11T21:34:18.161Z,13.18
2023-06-11T21:36:47.814Z,13.11
2023-06-11T21:39:16.325Z,13.11
2023-06-11T21:41:44.848Z,13.11
2023-06-11T21:44:14.537Z,13.06
2023-06-11T21:46:43.584Z,13.00
2023-06-11T21:49:11.485Z,12.90
2023-06-11T21:51:39.904Z,12.79
2023-06-11T21:54:07.682Z,12.75
2023-06-11T21:56:35.689Z,12.69
2023-06-11T21:59:03.476Z,12.61
2023-06-11T22:01:31.892Z,12.52
2023-06-11T22:03:59.816Z,12.43
2023-06-11T22:06:28.155Z,12.41
2023-06-11T22:08:55.951Z,12.36
2023-06-11T22:11:24.223Z,12.32
2023-06-11T22:13:51.790Z,12.28
2023-06-11T22:16:22.352Z,12.28
2023-06-11T22:18:52.766Z,12.27
2023-06-11T22:21:23.047Z,12.27
2023-06-11T22:23:52.309Z,12.23
2023-06-11T22:26:22.989Z,12.15
2023-06-11T22:28:52.170Z,12.07
2023-06-11T22:31:20.866Z,12.05
2023-06-11T22:33:48.889Z,12.09
2023-06-11T22:36:17.243Z,12.06
2023-06-11T22:38:45.321Z,12.08
2023-06-11T22:41:13.774Z,12.12
2023-06-11T22:43:41.681Z,12.18
2023-06-11T22:46:09.835Z,12.25
2023-06-11T22:48:37.822Z,12.32
2023-06-11T22:51:11.107Z,12.42
2023-06-11T22:53:39.018Z,12.50
2023-06-11T22:56:08.177Z,12.50
2023-06-11T22:58:36.296Z,12.46
2023-06-11T23:01:04.575Z,12.44
2023-06-11T23:03:32.458Z,12.39
2023-06-11T23:06:01.047Z,12.32
2023-06-11T23:08:29.401Z,12.23
2023-06-11T23:10:57.637Z,12.09
2023-06-11T23:13:25.484Z,11.93
2023-06-11T23:15:53.836Z,11.79
2023-06-11T23:18:25.370Z,11.68
2023-06-11T23:20:55.101Z,11.60
2023-06-11T23:23:23.744Z,11.56
2023-06-11T23:25:52.243Z,11.55
2023-06-11T23:28:24.072Z,11.51
2023-06-11T23:30:53.650Z,11.48
2023-06-11T23:33:21.502Z,11.43
2023-06-11T23:35:49.366Z,11.38
2023-06-11T23:38:17.502Z,11.33
2023-06-11T23:40:45.624Z,11.28
2023-06-11T23:43:13.511Z,11.21
2023-06-11T23:45:41.821Z,11.15
2023-06-11T23:48:09.624Z,11.08
2023-06-11T23:50:43.096Z,11.02
2023-06-11T23:53:11.305Z,10.97
2023-06-11T23:55:40.929Z,10.88
2023-06-11T23:58:23.364Z,10.81
